createdAt,value
2022-12-15T00:01:30.000Z,19.4
2022-12-15T00:04:58.000Z,25.5
2022-12-15T00:08:26.000Z,19.9
2022-12-15T00:11:54.000Z,16.4
2022-12-15T00:15:22.000Z,16.3
2022-12-15T00:18:49.000Z,15.7
2022-12-15T00:22:17.000Z,18.5
2022-12-15T00:25:45.000Z,15.3
2022-12-15T00:29:13.000Z,19.1
2022-12-15T00:32:46.000Z,18
2022-12-15T00:35:35.000Z,15.5
2022-12-15T00:39:03.000Z,14.2
2022-12-15T00:42:31.000Z,15
2022-12-15T00:45:58.000Z,15.4
2022-12-15T00:49:26.000Z,15.1
2022-12-15T00:52:54.000Z,19.5
2022-12-15T00:56:22.000Z,21.2
2022-12-15T00:59:50.000Z,17.8
2022-12-15T01:03:18.000Z,15.6
2022-12-15T01:06:46.000Z,14.6
2022-12-15T01:10:14.000Z,13.4
2022-12-15T01:13:03.000Z,13.5
2022-12-15T01:16:31.000Z,13
2022-12-15T01:19:59.000Z,13.4
2022-12-15T01:23:27.000Z,13
2022-12-15T01:26:55.000Z,13.3
2022-12-15T01:30:23.000Z,12.8
2022-12-15T01:33:51.000Z,13.4
2022-12-15T01:37:19.000Z,12.3
2022-12-15T01:40:50.000Z,13.2
2022-12-15T01:44:18.000Z,12.7
2022-12-15T01:47:46.000Z,11.5
2022-12-15T01:50:35.000Z,12.1
2022-12-15T01:54:03.000Z,12
2022-12-15T01:57:31.000Z,14.7
2022-12-15T02:00:59.000Z,18
2022-12-15T02:04:34.000Z,17.7
2022-12-15T02:08:02.000Z,14
2022-12-15T02:11:30.000Z,15.6
2022-12-15T02:14:57.000Z,18.4
2022-12-15T02:18:25.000Z,16.2
2022-12-15T02:21:53.000Z,16.5
2022-12-15T02:25:21.000Z,16
2022-12-15T02:28:10.000Z,15.9
2022-12-15T02:31:38.000Z,15.6
2022-12-15T02:35:10.000Z,15.3
2022-12-15T02:38:38.000Z,14.7
2022-12-15T02:42:06.000Z,14.2
2022-12-15T02:45:34.000Z,13.6
2022-12-15T02:49:02.000Z,14
2022-12-15T02:52:30.000Z,13.8
2022-12-15T02:55:57.000Z,14.3
2022-12-15T02:59:25.000Z,14.1
2022-12-15T03:02:53.000Z,14.1
2022-12-15T03:05:43.000Z,13.9
2022-12-15T03:09:11.000Z,14.1
2022-12-15T03:12:38.000Z,14.8
2022-12-15T03:16:06.000Z,15.3
2022-12-15T03:19:34.000Z,15.2
2022-12-15T03:23:02.000Z,15.3
2022-12-15T03:26:30.000Z,15.5
2022-12-15T03:29:58.000Z,15.8
2022-12-15T03:33:26.000Z,16.2
2022-12-15T03:36:54.000Z,16.3
2022-12-15T03:40:22.000Z,16.7
2022-12-15T03:43:11.000Z,16.6
2022-12-15T03:46:39.000Z,15.3
2022-12-15T03:50:07.000Z,17.2
2022-12-15T03:53:35.000Z,16.1
2022-12-15T03:57:03.000Z,17.1
2022-12-15T04:00:31.000Z,17.4
2022-12-15T04:03:59.000Z,15.3
2022-12-15T04:07:27.000Z,14.4
2022-12-15T04:10:55.000Z,17.2
2022-12-15T04:14:23.000Z,18.2
2022-12-15T04:17:50.000Z,16.3
2022-12-15T04:20:40.000Z,19.4
2022-12-15T04:24:14.000Z,18.8
2022-12-15T04:27:41.000Z,18.1
2022-12-15T04:31:09.000Z,19.9
2022-12-15T04:34:37.000Z,14.5
2022-12-15T04:38:05.000Z,15.9
2022-12-15T04:41:33.000Z,18.5
2022-12-15T04:45:00.000Z,18
2022-12-15T04:48:28.000Z,22.7
2022-12-15T04:51:56.000Z,18.5
2022-12-15T04:55:25.000Z,15.3
2022-12-15T04:58:14.000Z,17.1
2022-12-15T05:01:42.000Z,18.7
2022-12-15T05:05:14.000Z,16
2022-12-15T05:08:42.000Z,18.9
2022-12-15T05:12:11.000Z,18.2
2022-12-15T05:15:39.000Z,21.4
2022-12-15T05:19:07.000Z,21.5
2022-12-15T05:22:35.000Z,20.3
2022-12-15T05:26:03.000Z,22.3
2022-12-15T05:29:31.000Z,20.7
2022-12-15T05:32:59.000Z,18.4
2022-12-15T05:35:48.000Z,18.1
2022-12-15T05:39:16.000Z,16.7
2022-12-15T05:42:44.000Z,19.7
2022-12-15T05:46:12.000Z,20.2
2022-12-15T05:49:39.000Z,18
2022-12-15T05:53:07.000Z,19.5
2022-12-15T05:56:35.000Z,20.4
2022-12-15T06:00:03.000Z,21.4
2022-12-15T06:03:31.000Z,19.1
2022-12-15T06:06:59.000Z,20.5
2022-12-15T06:10:27.000Z,19.8
2022-12-15T06:13:16.000Z,20.2
2022-12-15T06:16:45.000Z,19.4
2022-12-15T06:20:14.000Z,20.2
2022-12-15T06:23:42.000Z,19.6
2022-12-15T06:27:10.000Z,20.2
2022-12-15T06:30:38.000Z,19.1
2022-12-15T06:34:06.000Z,19.1
2022-12-15T06:37:34.000Z,20.9
2022-12-15T06:41:01.000Z,22
2022-12-15T06:44:29.000Z,21.5
2022-12-15T06:47:57.000Z,21.6
2022-12-15T06:50:46.000Z,19.4
2022-12-15T06:54:14.000Z,17.5
2022-12-15T06:57:42.000Z,19.8
2022-12-15T07:01:10.000Z,22.1
2022-12-15T07:04:38.000Z,22.5
2022-12-15T07:08:06.000Z,24
2022-12-15T07:11:34.000Z,22.3
2022-12-15T07:15:02.000Z,21.3
2022-12-15T07:18:30.000Z,21.9
2022-12-15T07:21:58.000Z,25.2
2022-12-15T07:25:50.000Z,26
2022-12-15T07:28:39.000Z,23.9
2022-12-15T07:32:07.000Z,29.4
2022-12-15T07:35:35.000Z,22.7
2022-12-15T07:39:03.000Z,37.4
2022-12-15T07:42:31.000Z,22.5
2022-12-15T07:45:59.000Z,22.4
2022-12-15T07:49:27.000Z,20.6
2022-12-15T07:53:06.000Z,21.8
2022-12-15T07:56:33.000Z,20.2
2022-12-15T08:00:01.000Z,19.7
2022-12-15T08:03:29.000Z,22.4
2022-12-15T08:06:20.000Z,20.3
2022-12-15T08:09:48.000Z,19.6
2022-12-15T08:13:15.000Z,20.4
2022-12-15T08:17:21.000Z,18.1
2022-12-15T08:20:48.000Z,18.6
2022-12-15T08:24:16.000Z,23.8
2022-12-15T08:27:44.000Z,18.2
2022-12-15T08:31:46.000Z,17.5
2022-12-15T08:35:14.000Z,19.3
2022-12-15T08:39:16.000Z,17.7
2022-12-15T08:42:43.000Z,20.5
2022-12-15T08:45:32.000Z,20.5
2022-12-15T08:49:00.000Z,24.2
2022-12-15T08:52:28.000Z,20.1
2022-12-15T08:55:56.000Z,19.8
2022-12-15T08:59:24.000Z,20.8
2022-12-15T09:02:52.000Z,18.6
2022-12-15T09:06:20.000Z,19.6
2022-12-15T09:09:48.000Z,19.2
2022-12-15T09:13:16.000Z,21.8
2022-12-15T09:16:44.000Z,20.5
2022-12-15T09:20:12.000Z,20.7
2022-12-15T09:23:01.000Z,20.2
2022-12-15T09:26:31.000Z,21
2022-12-15T09:29:59.000Z,20.1
2022-12-15T09:33:27.000Z,22.6
2022-12-15T09:36:55.000Z,15.6
2022-12-15T09:40:23.000Z,20.5
2022-12-15T09:43:51.000Z,24
2022-12-15T09:47:19.000Z,24.6
2022-12-15T09:50:47.000Z,21.8
2022-12-15T09:54:15.000Z,21.3
2022-12-15T09:57:46.000Z,22.7
2022-12-15T10:00:35.000Z,23.9
2022-12-15T10:04:06.000Z,24.1
2022-12-15T10:08:11.000Z,18.9
2022-12-15T10:11:38.000Z,22.2
2022-12-15T10:15:11.000Z,21.2
2022-12-15T10:18:39.000Z,22
2022-12-15T10:22:10.000Z,22.8
2022-12-15T10:25:38.000Z,20.8
2022-12-15T10:29:11.000Z,22
2022-12-15T10:32:39.000Z,20.7
2022-12-15T10:36:11.000Z,19.8
2022-12-15T10:39:00.000Z,19.7
2022-12-15T10:42:33.000Z,23
2022-12-15T10:46:01.000Z,22
2022-12-15T10:49:29.000Z,20.9
2022-12-15T10:52:56.000Z,23.4
2022-12-15T10:56:24.000Z,21.4
2022-12-15T10:59:54.000Z,19.2
2022-12-15T11:03:22.000Z,22.3
2022-12-15T11:06:51.000Z,19.4
2022-12-15T11:10:19.000Z,23.7
2022-12-15T11:13:47.000Z,19.2
2022-12-15T11:16:36.000Z,20.4
2022-12-15T11:20:05.000Z,21.6
2022-12-15T11:23:33.000Z,22
2022-12-15T11:27:09.000Z,21.3
2022-12-15T11:30:37.000Z,23.1
2022-12-15T11:34:05.000Z,24.1
2022-12-15T11:37:33.000Z,21.6
2022-12-15T11:41:01.000Z,22.5
2022-12-15T11:44:28.000Z,21
2022-12-15T11:47:56.000Z,24.1
2022-12-15T11:51:24.000Z,25.6
2022-12-15T11:54:13.000Z,22.6
2022-12-15T11:57:41.000Z,24.5
2022-12-15T12:03:17.000Z,22.7
2022-12-15T12:08:53.000Z,25.5
2022-12-15T12:12:21.000Z,26
2022-12-15T12:15:50.000Z,24.9
2022-12-15T12:19:18.000Z,24
2022-12-15T12:22:46.000Z,24.9
2022-12-15T12:26:15.000Z,28
2022-12-15T12:29:46.000Z,23.5
2022-12-15T12:33:15.000Z,27.1
2022-12-15T12:35:52.000Z,26.7
2022-12-15T12:39:20.000Z,23.2
2022-12-15T12:42:48.000Z,24.3
2022-12-15T12:46:16.000Z,24.4
2022-12-15T12:49:44.000Z,27.3
2022-12-15T12:53:12.000Z,24.4
2022-12-15T12:56:39.000Z,27.1
2022-12-15T13:00:10.000Z,28.6
2022-12-15T13:03:39.000Z,27.6
2022-12-15T13:07:09.000Z,28.2
2022-12-15T13:10:37.000Z,23.4
2022-12-15T13:13:27.000Z,23.7
2022-12-15T13:16:55.000Z,28
2022-12-15T13:20:47.000Z,24.3
2022-12-15T13:24:15.000Z,28.6
2022-12-15T13:27:51.000Z,24.9
2022-12-15T13:31:19.000Z,26.5
2022-12-15T13:34:47.000Z,26.9
2022-12-15T13:38:15.000Z,26.1
2022-12-15T13:41:46.000Z,26.4
2022-12-15T13:45:52.000Z,23.8
2022-12-15T13:49:21.000Z,25.1
2022-12-15T13:52:10.000Z,27.6
2022-12-15T13:55:38.000Z,25.1
2022-12-15T13:59:06.000Z,23.6
2022-12-15T14:02:34.000Z,26.7
2022-12-15T14:06:02.000Z,25.6
2022-12-15T14:09:29.000Z,26
2022-12-15T14:13:25.000Z,25.9
2022-12-15T14:16:55.000Z,28.9
2022-12-15T14:20:23.000Z,28.1
2022-12-15T14:23:51.000Z,24.3
2022-12-15T14:27:57.000Z,23.4
2022-12-15T14:30:53.000Z,25.4
2022-12-15T14:34:21.000Z,23.4
2022-12-15T14:37:49.000Z,22.1
2022-12-15T14:41:17.000Z,23.8
2022-12-15T14:44:46.000Z,22.4
2022-12-15T14:48:18.000Z,24.2
2022-12-15T14:52:03.000Z,23.9
2022-12-15T14:55:31.000Z,22.5
2022-12-15T14:58:59.000Z,21.4
2022-12-15T15:02:28.000Z,25.7
2022-12-15T15:05:56.000Z,30.4
2022-12-15T15:08:45.000Z,27.6
2022-12-15T15:12:13.000Z,26.4
2022-12-15T15:15:41.000Z,52.5
2022-12-15T15:19:09.000Z,41.8
2022-12-15T15:22:37.000Z,66.1
2022-12-15T15:26:05.000Z,76.4
2022-12-15T15:29:32.000Z,57.1
2022-12-15T15:33:00.000Z,31.5
2022-12-15T15:36:28.000Z,31.9
2022-12-15T15:39:56.000Z,36.5
2022-12-15T15:43:24.000Z,29.5
2022-12-15T15:46:13.000Z,36.5
2022-12-15T15:49:41.000Z,32.8
2022-12-15T15:53:09.000Z,37.9
2022-12-15T15:56:37.000Z,40.2
2022-12-15T16:00:04.000Z,28.7
2022-12-15T16:03:33.000Z,26.3
2022-12-15T16:07:01.000Z,27.2
2022-12-15T16:10:30.000Z,26.9
2022-12-15T16:13:58.000Z,26
2022-12-15T16:17:26.000Z,25.4
2022-12-15T16:20:54.000Z,24.3
2022-12-15T16:23:43.000Z,24.4
2022-12-15T16:27:11.000Z,23.9
2022-12-15T16:30:39.000Z,23.9
2022-12-15T16:34:07.000Z,21.4
2022-12-15T16:37:35.000Z,22.7
2022-12-15T16:41:03.000Z,21.9
2022-12-15T16:44:31.000Z,22.5
2022-12-15T16:47:59.000Z,21.1
2022-12-15T16:51:36.000Z,23.6
2022-12-15T16:55:04.000Z,36.6
2022-12-15T16:58:32.000Z,44.1
2022-12-15T17:01:20.000Z,37.2
2022-12-15T17:04:49.000Z,24.2
2022-12-15T17:08:17.000Z,21.6
2022-12-15T17:11:45.000Z,19.8
2022-12-15T17:15:13.000Z,20.6
2022-12-15T17:18:40.000Z,19.9
2022-12-15T17:22:25.000Z,19.2
2022-12-15T17:25:54.000Z,18.5
2022-12-15T17:29:48.000Z,18.2
2022-12-15T17:33:16.000Z,17.3
2022-12-15T17:36:44.000Z,18.9
2022-12-15T17:39:33.000Z,18.5
2022-12-15T17:43:00.000Z,25.3
2022-12-15T17:46:32.000Z,33.6
2022-12-15T17:50:00.000Z,25.3
2022-12-15T17:53:28.000Z,21.3
2022-12-15T17:56:56.000Z,18.1
2022-12-15T18:00:24.000Z,19.7
2022-12-15T18:03:52.000Z,17.7
2022-12-15T18:07:20.000Z,19.2
2022-12-15T18:10:47.000Z,17.5
2022-12-15T18:14:15.000Z,20.2
2022-12-15T18:17:04.000Z,18.2
2022-12-15T18:20:32.000Z,16.2
2022-12-15T18:24:00.000Z,17.6
2022-12-15T18:27:28.000Z,16.9
2022-12-15T18:30:56.000Z,16.7
2022-12-15T18:34:24.000Z,16.5
2022-12-15T18:37:52.000Z,16.3
2022-12-15T18:41:20.000Z,18.1
2022-12-15T18:44:48.000Z,18
2022-12-15T18:48:15.000Z,17.3
2022-12-15T18:51:43.000Z,15.7
2022-12-15T18:54:32.000Z,16.4
2022-12-15T18:58:00.000Z,25.9
2022-12-15T19:01:32.000Z,23
2022-12-15T19:05:01.000Z,15.5
2022-12-15T19:08:29.000Z,18.9
2022-12-15T19:11:56.000Z,17.9
2022-12-15T19:15:25.000Z,19.3
2022-12-15T19:18:53.000Z,17.5
2022-12-15T19:22:21.000Z,16.4
2022-12-15T19:25:49.000Z,15.9
2022-12-15T19:29:17.000Z,16.9
2022-12-15T19:32:06.000Z,16.9
2022-12-15T19:35:34.000Z,16.5
2022-12-15T19:39:01.000Z,17.4
2022-12-15T19:42:29.000Z,17.2
2022-12-15T19:45:57.000Z,18.1
2022-12-15T19:49:25.000Z,18.1
2022-12-15T19:52:53.000Z,18.6
2022-12-15T19:56:21.000Z,18
2022-12-15T19:59:49.000Z,20.7
2022-12-15T20:03:17.000Z,17.3
2022-12-15T20:06:45.000Z,24.1
2022-12-15T20:09:34.000Z,25.2
2022-12-15T20:13:01.000Z,21.7
2022-12-15T20:16:29.000Z,21.8
2022-12-15T20:19:57.000Z,25.1
2022-12-15T20:23:25.000Z,24.9
2022-12-15T20:26:53.000Z,19.9
2022-12-15T20:30:21.000Z,22
2022-12-15T20:33:49.000Z,21.9
2022-12-15T20:37:17.000Z,20.2
2022-12-15T20:40:45.000Z,19.5
2022-12-15T20:44:13.000Z,21.2
2022-12-15T20:47:02.000Z,21.6
2022-12-15T20:50:30.000Z,19.7
2022-12-15T20:53:58.000Z,21.5
2022-12-15T20:57:25.000Z,19
2022-12-15T21:00:53.000Z,19.9
2022-12-15T21:04:22.000Z,19.4
2022-12-15T21:07:49.000Z,21.8
2022-12-15T21:11:17.000Z,18.2
2022-12-15T21:14:45.000Z,20
2022-12-15T21:18:13.000Z,20.4
2022-12-15T21:22:39.000Z,20.8
2022-12-15T21:25:28.000Z,20.4
2022-12-15T21:28:56.000Z,21.9
2022-12-15T21:32:24.000Z,26.1
2022-12-15T21:35:52.000Z,27.6
2022-12-15T21:39:19.000Z,26.6
2022-12-15T21:42:55.000Z,23
2022-12-15T21:46:23.000Z,23
2022-12-15T21:49:51.000Z,23.5
2022-12-15T21:53:18.000Z,25
2022-12-15T21:56:46.000Z,23.5
2022-12-15T22:00:15.000Z,25.8
2022-12-15T22:03:04.000Z,24.1
2022-12-15T22:06:32.000Z,31.1
2022-12-15T22:10:00.000Z,25.5
2022-12-15T22:13:28.000Z,40.2
2022-12-15T22:16:56.000Z,32.5
2022-12-15T22:20:24.000Z,27.3
2022-12-15T22:23:51.000Z,26.3
2022-12-15T22:27:19.000Z,50
2022-12-15T22:30:47.000Z,39.6
2022-12-15T22:34:15.000Z,27.7
2022-12-15T22:37:43.000Z,24.7
2022-12-15T22:40:33.000Z,24.1
2022-12-15T22:44:01.000Z,21.9
2022-12-15T22:47:35.000Z,23
2022-12-15T22:51:04.000Z,22.8
2022-12-15T22:54:31.000Z,21.1
2022-12-15T22:58:06.000Z,22.4
2022-12-15T23:01:33.000Z,23.6
2022-12-15T23:05:01.000Z,21.9
2022-12-15T23:08:29.000Z,20.7
2022-12-15T23:11:57.000Z,19.2
2022-12-15T23:15:25.000Z,19.7
2022-12-15T23:18:14.000Z,18.8
2022-12-15T23:21:42.000Z,18
2022-12-15T23:25:10.000Z,17.8
2022-12-15T23:28:38.000Z,18
2022-12-15T23:32:06.000Z,17.1
2022-12-15T23:35:34.000Z,17.3
2022-12-15T23:39:02.000Z,16.7
2022-12-15T23:42:30.000Z,16.1
2022-12-15T23:45:58.000Z,16.9
2022-12-15T23:49:26.000Z,12.4
2022-12-15T23:52:54.000Z,15.7
2022-12-15T23:55:43.000Z,20.6
